Time;durP1;ratioP1;P1;durP2;ratioP2;P2;SDS_P1;SDS_P2;PMS_P1;PMS_P2;Temp;Humidity;BMP_temperature;BMP_pressure;BME280_temperature;BME280_humidity;BME280_pressure;Samples;Min_cycle;Max_cycle;Signal;HPM_P1;HPM_P2
2023/01/12 00:01:54;;;;;;;33.25;4.20;;;7.50;99.90;;;;;;6238002;23;20073;-82
2023/01/12 00:04:20;;;;;;;31.35;4.07;;;7.80;99.90;;;;;;6210927;23;20060;-83
2023/01/12 00:06:46;;;;;;;32.78;4.43;;;7.50;99.90;;;;;;6235055;23;20043;-83
2023/01/12 00:09:12;;;;;;;31.35;3.50;;;7.60;99.90;;;;;;6214524;23;20061;-83
2023/01/12 00:11:38;;;;;;;29.27;4.00;;;7.90;99.90;;;;;;6266704;23;20008;-82
2023/01/12 00:14:05;;;;;;;27.67;4.03;;;7.50;99.90;;;;;;6241129;23;20066;-83
2023/01/12 00:16:34;;;;;;;30.13;3.80;;;7.90;99.90;;;;;;6236420;23;20017;-82
2023/01/12 00:19:17;;;;;;;32.67;4.00;;;7.80;99.90;;;;;;6213659;23;20047;-83
2023/01/12 00:22:12;;;;;;;28.05;3.95;;;7.90;99.90;;;;;;6264246;23;20046;-83
2023/01/12 00:24:40;;;;;;;32.90;4.05;;;7.70;99.90;;;;;;6239155;22;20016;-82
2023/01/12 00:27:15;;;;;;;30.33;4.10;;;7.90;99.90;;;;;;6216779;23;20043;-86
2023/01/12 00:29:41;;;;;;;25.48;4.03;;;7.60;99.90;;;;;;6239361;23;20055;-83
2023/01/12 00:32:14;;;;;;;34.78;4.53;;;7.90;99.90;;;;;;6216724;23;20016;-82
2023/01/12 00:38:05;;;;;;;31.20;4.55;;;7.90;99.90;;;;;;6238173;23;20023;-84
2023/01/12 00:40:31;;;;;;;38.55;4.72;;;7.70;99.90;;;;;;6188571;23;20062;-84
2023/01/12 00:45:41;;;;;;;32.92;5.65;;;7.70;99.90;;;;;;6250898;23;20716;-85
2023/01/12 00:48:11;;;;;;;36.78;4.75;;;8.00;99.90;;;;;;6192355;23;20016;-84
2023/01/12 00:50:37;;;;;;;31.83;4.80;;;7.80;99.90;;;;;;6197242;23;20060;-84
2023/01/12 00:53:03;;;;;;;37.13;4.85;;;8.00;99.90;;;;;;6226547;23;20018;-83
2023/01/12 00:55:29;;;;;;;34.22;4.15;;;7.60;99.90;;;;;;6225795;23;20122;-86
2023/01/12 00:57:55;;;;;;;36.97;4.65;;;7.80;99.90;;;;;;6222686;23;20065;-82
2023/01/12 01:00:21;;;;;;;34.67;4.68;;;7.70;99.90;;;;;;6210299;23;20035;-84
2023/01/12 01:02:47;;;;;;;35.05;4.72;;;7.90;99.90;;;;;;6240576;23;20027;-84
2023/01/12 01:05:32;;;;;;;41.78;4.68;;;8.00;99.90;;;;;;6265158;23;20336;-83
2023/01/12 01:07:57;;;;;;;36.92;5.05;;;7.80;99.90;;;;;;6210551;23;20161;-84
2023/01/12 01:10:23;;;;;;;29.58;4.20;;;7.90;99.90;;;;;;6264964;23;20008;-83
2023/01/12 01:12:48;;;;;;;29.73;4.72;;;7.80;99.90;;;;;;6237117;23;20012;-82
2023/01/12 01:15:14;;;;;;;36.65;4.57;;;7.70;99.90;;;;;;6238533;23;20176;-82
2023/01/12 01:17:40;;;;;;;32.30;4.22;;;7.70;99.90;;;;;;6214880;23;20028;-83
2023/01/12 01:20:06;;;;;;;33.65;4.72;;;7.90;99.90;;;;;;6240533;23;20012;-82
2023/01/12 01:22:32;;;;;;;30.65;4.00;;;7.80;99.90;;;;;;6266750;22;20004;-81
2023/01/12 01:24:57;;;;;;;31.60;4.57;;;7.70;99.90;;;;;;6240420;23;20027;-82
2023/01/12 01:27:23;;;;;;;36.42;4.15;;;7.70;99.90;;;;;;6266356;23;20012;-81
2023/01/12 01:29:48;;;;;;;40.20;4.63;;;7.90;99.90;;;;;;6215220;23;20055;-85
2023/01/12 01:32:14;;;;;;;35.05;4.28;;;7.70;99.90;;;;;;6266659;23;20059;-82
2023/01/12 01:34:40;;;;;;;27.23;3.90;;;7.80;99.90;;;;;;6237868;23;20008;-85
2023/01/12 01:37:05;;;;;;;35.72;4.50;;;7.80;99.90;;;;;;6234069;23;20091;-83
2023/01/12 01:39:31;;;;;;;28.70;4.13;;;7.80;99.90;;;;;;6212559;23;20016;-83
2023/01/12 01:41:57;;;;;;;32.50;4.55;;;7.70;99.90;;;;;;6265129;23;20012;-83
2023/01/12 01:44:28;;;;;;;31.00;4.45;;;8.00;99.90;;;;;;6212877;23;20046;-82
2023/01/12 01:47:18;;;;;;;32.70;4.28;;;7.70;99.90;;;;;;6236693;23;20032;-82
2023/01/12 01:49:49;;;;;;;31.98;4.50;;;8.00;99.90;;;;;;6209974;23;20020;-83
2023/01/12 01:52:24;;;;;;;28.80;4.88;;;7.60;99.90;;;;;;6234290;23;20042;-83
2023/01/12 01:54:57;;;;;;;41.58;5.32;;;7.70;99.90;;;;;;6264435;23;20000;-83
2023/01/12 01:57:26;;;;;;;33.03;4.57;;;7.60;99.90;;;;;;6237332;23;20027;-84
2023/01/12 01:59:55;;;;;;;35.08;5.03;;;7.70;99.90;;;;;;6218029;23;20020;-82
2023/01/12 02:02:23;;;;;;;29.65;4.10;;;7.60;99.90;;;;;;6238596;23;20000;-82
2023/01/12 02:04:48;;;;;;;27.70;4.00;;;8.00;99.90;;;;;;6238640;23;20035;-85
2023/01/12 02:07:14;;;;;;;35.95;4.57;;;8.10;99.90;;;;;;6212157;23;20012;-83
2023/01/12 02:09:40;;;;;;;27.45;4.32;;;8.00;99.90;;;;;;6243525;23;20068;-83
2023/01/12 02:18:10;;;;;;;28.53;3.90;;;8.10;99.90;;;;;;6220999;23;20435;-83
2023/01/12 02:20:35;;;;;;;27.20;4.72;;;7.90;99.90;;;;;;6224161;23;20012;-83
2023/01/12 02:23:39;;;;;;;34.95;5.00;;;8.10;99.90;;;;;;6235082;23;20019;-82
2023/01/12 02:26:47;;;;;;;32.85;4.82;;;8.00;99.90;;;;;;6211959;23;20016;-82
2023/01/12 02:29:41;;;;;;;37.75;5.30;;;8.10;99.90;;;;;;6210737;23;20076;-82
2023/01/12 02:32:35;;;;;;;41.80;5.18;;;7.80;99.90;;;;;;6236576;23;20022;-82
2023/01/12 02:35:44;;;;;;;40.15;5.25;;;8.00;99.90;;;;;;6236321;23;20012;-83
2023/01/12 02:38:35;;;;;;;33.70;4.63;;;8.30;99.90;;;;;;6198191;23;20028;-82
2023/01/12 02:42:39;;;;;;;47.92;5.20;;;7.90;99.90;;;;;;6223771;23;20333;-83
2023/01/12 02:44:08;;;;;;;40.47;4.85;;;8.10;99.90;;;;;;6224417;23;20045;-87
2023/01/12 02:46:38;;;;;;;39.40;5.07;;;8.20;99.90;;;;;;6234100;23;20062;-83
2023/01/12 02:49:47;;;;;;;33.85;4.75;;;7.70;99.90;;;;;;6217298;23;20000;-82
2023/01/12 02:52:15;;;;;;;36.60;5.10;;;8.10;99.90;;;;;;6237094;23;20043;-82
2023/01/12 02:54:43;;;;;;;43.95;5.10;;;8.00;99.90;;;;;;6211334;23;20012;-81
2023/01/12 02:57:09;;;;;;;44.28;4.90;;;8.40;99.90;;;;;;6237122;23;20012;-84
2023/01/12 02:59:40;;;;;;;38.80;5.32;;;8.40;99.90;;;;;;6213444;23;20072;-82
2023/01/12 03:02:12;;;;;;;44.00;5.57;;;7.80;99.90;;;;;;6237597;23;20024;-82
2023/01/12 03:04:39;;;;;;;48.30;5.43;;;8.10;99.90;;;;;;6237372;23;20012;-84
2023/01/12 03:07:04;;;;;;;33.88;4.68;;;8.00;99.90;;;;;;6210778;23;20016;-82
2023/01/12 03:09:40;;;;;;;39.83;5.20;;;8.20;99.90;;;;;;6263184;23;20019;-81
2023/01/12 03:12:11;;;;;;;29.15;4.50;;;8.30;99.90;;;;;;6236527;23;20018;-81
2023/01/12 03:14:40;;;;;;;42.05;5.57;;;8.30;99.90;;;;;;6235145;23;20005;-81
2023/01/12 03:17:10;;;;;;;41.65;6.07;;;7.90;99.90;;;;;;6261247;23;20031;-82
2023/01/12 03:19:39;;;;;;;39.80;6.10;;;8.30;99.90;;;;;;6236877;23;20022;-83
2023/01/12 03:22:12;;;;;;;31.17;5.00;;;8.10;99.90;;;;;;6238265;23;20015;-84
2023/01/12 03:24:44;;;;;;;44.90;5.43;;;7.90;99.90;;;;;;6240800;23;20024;-82
2023/01/12 03:27:21;;;;;;;45.20;5.95;;;8.50;99.90;;;;;;6245871;22;20012;-83
2023/01/12 03:30:01;;;;;;;36.83;5.47;;;8.10;99.90;;;;;;6243420;23;20020;-82
2023/01/12 03:32:27;;;;;;;41.78;5.75;;;8.00;99.90;;;;;;6238931;23;20026;-82
2023/01/12 03:38:54;;;;;;;33.35;4.78;;;8.30;99.90;;;;;;6257812;23;20078;-86
2023/01/12 03:41:44;;;;;;;38.72;5.38;;;8.50;99.90;;;;;;6252166;23;20079;-82
2023/01/12 03:44:19;;;;;;;35.45;5.20;;;7.90;99.90;;;;;;6263061;23;20023;-82
2023/01/12 03:46:57;;;;;;;27.23;4.63;;;8.20;99.90;;;;;;6264707;23;20031;-82
2023/01/12 03:49:35;;;;;;;30.40;4.63;;;8.20;99.90;;;;;;6237758;23;20039;-82
2023/01/12 03:52:03;;;;;;;32.15;4.35;;;8.60;99.90;;;;;;6264530;23;20079;-82
2023/01/12 03:54:31;;;;;;;36.35;5.10;;;8.10;99.90;;;;;;6239660;23;20030;-83
2023/01/12 03:56:58;;;;;;;26.05;4.03;;;8.20;99.90;;;;;;6238490;23;20016;-82
2023/01/12 03:59:24;;;;;;;24.95;4.38;;;8.20;99.90;;;;;;6266711;23;20084;-83
2023/01/12 04:01:50;;;;;;;28.48;4.22;;;8.20;99.90;;;;;;6239447;23;20012;-83
2023/01/12 04:05:12;;;;;;;30.50;4.20;;;8.20;99.90;;;;;;6214898;23;20008;-84
2023/01/12 04:07:38;;;;;;;32.70;4.60;;;8.70;99.90;;;;;;6242371;23;20008;-83
2023/01/12 04:10:04;;;;;;;34.83;4.30;;;8.80;99.90;;;;;;6241082;23;20012;-82
2023/01/12 04:12:29;;;;;;;30.27;4.30;;;8.80;99.90;;;;;;6214371;23;20068;-83
2023/01/12 04:14:55;;;;;;;37.83;4.90;;;8.50;99.90;;;;;;6240930;23;20012;-82
2023/01/12 04:17:24;;;;;;;35.95;4.85;;;8.30;99.90;;;;;;6213920;23;20078;-82
2023/01/12 04:19:50;;;;;;;31.05;4.65;;;8.70;99.90;;;;;;6216395;23;20004;-83
2023/01/12 04:25:02;;;;;;;25.52;3.67;;;8.60;99.90;;;;;;6239761;23;20024;-84
2023/01/12 04:27:28;;;;;;;31.27;4.28;;;8.30;99.90;;;;;;6239303;23;20000;-82
2023/01/12 04:29:54;;;;;;;30.52;4.43;;;8.80;99.90;;;;;;6213988;23;20027;-85
2023/01/12 04:32:20;;;;;;;24.17;3.78;;;8.70;99.90;;;;;;6240334;23;20007;-82
2023/01/12 04:34:45;;;;;;;23.10;3.40;;;8.50;99.90;;;;;;6214085;23;20068;-82
2023/01/12 04:37:11;;;;;;;26.15;4.05;;;8.50;99.90;;;;;;6220185;23;20330;-84
2023/01/12 04:39:37;;;;;;;18.27;3.67;;;8.40;99.90;;;;;;6199887;23;20030;-83
2023/01/12 04:42:03;;;;;;;27.73;3.60;;;8.80;99.90;;;;;;6240023;23;20012;-85
2023/01/12 04:44:29;;;;;;;21.63;3.45;;;8.70;99.90;;;;;;6214962;23;20023;-80
2023/01/12 04:46:54;;;;;;;12.52;2.63;;;8.70;99.90;;;;;;6212546;23;20020;-82
2023/01/12 04:53:39;;;;;;;18.75;2.63;;;8.70;99.90;;;;;;6267270;23;20011;-81
2023/01/12 04:56:06;;;;;;;15.13;2.17;;;8.60;99.90;;;;;;6241155;23;20020;-83
2023/01/12 04:58:32;;;;;;;14.05;2.83;;;8.30;99.90;;;;;;6213767;23;20023;-81
2023/01/12 05:01:06;;;;;;;11.15;2.20;;;8.10;99.90;;;;;;6240992;23;20016;-85
2023/01/12 05:03:31;;;;;;;12.65;2.17;;;8.20;99.90;;;;;;6268507;23;19999;-81
2023/01/12 05:06:17;;;;;;;14.85;2.00;;;8.30;99.90;;;;;;6239497;23;20004;-83
2023/01/12 05:11:28;;;;;;;10.30;1.73;;;8.60;99.90;;;;;;6237406;23;20020;-82
2023/01/12 05:13:54;;;;;;;11.82;1.85;;;8.10;99.90;;;;;;6210336;23;20023;-83
2023/01/12 05:16:20;;;;;;;10.65;2.08;;;8.50;99.90;;;;;;6209803;23;20171;-85
2023/01/12 05:18:46;;;;;;;9.88;1.80;;;8.60;99.90;;;;;;6239242;23;20012;-84
2023/01/12 05:24:53;;;;;;;7.32;1.50;;;8.60;99.90;;;;;;6238705;22;20027;-82
2023/01/12 05:27:18;;;;;;;6.03;1.42;;;8.00;99.90;;;;;;6254831;23;20024;-88
2023/01/12 05:29:44;;;;;;;8.40;1.40;;;8.40;99.90;;;;;;6225448;23;20033;-86
2023/01/12 05:32:10;;;;;;;10.82;1.73;;;8.40;99.90;;;;;;6197039;23;20045;-85
2023/01/12 05:34:35;;;;;;;8.75;1.80;;;8.30;99.90;;;;;;6220407;23;20352;-90
2023/01/12 05:37:01;;;;;;;8.07;1.90;;;8.00;99.90;;;;;;6192868;23;20023;-86
2023/01/12 05:39:27;;;;;;;8.60;2.13;;;8.40;99.90;;;;;;6192699;23;20008;-85
2023/01/12 05:44:36;;;;;;;9.40;1.83;;;8.20;99.90;;;;;;6217408;23;20165;-87
2023/01/12 05:47:02;;;;;;;6.95;1.67;;;8.50;99.90;;;;;;6191949;23;20098;-82
2023/01/12 05:49:28;;;;;;;5.65;1.70;;;8.00;99.90;;;;;;6217790;23;20016;-87
2023/01/12 05:51:53;;;;;;;4.55;1.52;;;8.60;99.90;;;;;;6217915;23;20012;-87
2023/01/12 05:54:19;;;;;;;6.85;1.40;;;8.50;99.90;;;;;;6194740;23;20062;-88
2023/01/12 05:56:45;;;;;;;4.20;1.27;;;8.50;99.90;;;;;;6191040;23;20107;-85
2023/01/12 05:59:13;;;;;;;7.13;1.50;;;8.20;99.90;;;;;;6191404;23;20023;-88
2023/01/12 06:01:39;;;;;;;3.65;1.13;;;8.00;99.90;;;;;;6192388;23;20320;-87
2023/01/12 06:04:05;;;;;;;4.80;1.38;;;8.60;99.90;;;;;;6192588;23;20020;-83
2023/01/12 06:06:31;;;;;;;4.75;1.02;;;8.60;99.90;;;;;;6214241;23;20099;-88
2023/01/12 06:08:58;;;;;;;4.38;1.20;;;8.60;99.90;;;;;;6192360;23;20008;-85
2023/01/12 06:14:09;;;;;;;3.38;1.00;;;8.50;99.90;;;;;;6217262;23;20024;-84
2023/01/12 06:16:39;;;;;;;5.40;1.38;;;8.40;99.90;;;;;;6217402;23;20019;-86
2023/01/12 06:19:05;;;;;;;4.85;1.25;;;8.20;99.90;;;;;;6216861;23;20066;-87
2023/01/12 06:21:32;;;;;;;4.25;1.17;;;8.40;99.90;;;;;;6243935;23;20146;-88
2023/01/12 06:23:58;;;;;;;3.53;1.13;;;8.60;99.90;;;;;;6192172;23;20019;-87
2023/01/12 06:26:24;;;;;;;1.70;0.90;;;8.10;99.90;;;;;;6216879;23;20020;-85
2023/01/12 06:28:49;;;;;;;3.17;1.00;;;8.70;99.90;;;;;;6192017;23;20020;-83
2023/01/12 06:31:15;;;;;;;3.63;1.08;;;8.40;99.90;;;;;;6215455;23;20074;-88
2023/01/12 06:33:41;;;;;;;5.35;1.00;;;8.10;99.90;;;;;;6244563;23;20024;-86
2023/01/12 06:36:08;;;;;;;2.25;0.80;;;8.40;99.90;;;;;;6216595;23;20440;-85
2023/01/12 06:38:36;;;;;;;3.35;0.90;;;8.70;99.90;;;;;;6191380;23;20032;-85
2023/01/12 06:43:53;;;;;;;1.65;0.88;;;8.50;99.90;;;;;;6216527;23;20027;-83
2023/01/12 06:46:19;;;;;;;3.33;1.00;;;8.40;99.90;;;;;;6218114;23;20012;-82
2023/01/12 06:48:45;;;;;;;3.78;0.95;;;8.70;99.90;;;;;;6199512;23;20036;-83
2023/01/12 06:51:10;;;;;;;4.47;1.00;;;9.10;99.90;;;;;;6203708;23;20062;-83
2023/01/12 06:53:36;;;;;;;2.63;1.00;;;8.60;99.90;;;;;;6204244;23;20023;-83
2023/01/12 06:56:02;;;;;;;2.97;1.05;;;9.10;99.90;;;;;;6257986;22;20083;-83
2023/01/12 06:58:27;;;;;;;3.28;1.30;;;9.30;99.90;;;;;;6215838;23;20083;-86
2023/01/12 07:00:53;;;;;;;2.95;1.40;;;9.00;99.90;;;;;;6215441;23;20064;-87
2023/01/12 07:03:19;;;;;;;7.65;1.75;;;8.80;99.90;;;;;;6190631;23;20498;-89
2023/01/12 07:05:45;;;;;;;10.05;2.08;;;8.90;99.90;;;;;;6189692;23;20016;-88
2023/01/12 07:08:14;;;;;;;8.80;2.10;;;9.50;99.90;;;;;;6214763;23;20099;-89
2023/01/12 07:10:42;;;;;;;8.90;1.92;;;8.90;99.90;;;;;;6190486;23;20150;-86
2023/01/12 07:13:09;;;;;;;10.20;2.20;;;9.50;99.90;;;;;;6190117;23;20154;-88
2023/01/12 07:15:34;;;;;;;10.30;2.50;;;9.10;99.90;;;;;;6190840;23;20066;-87
2023/01/12 07:18:00;;;;;;;16.40;2.58;;;9.70;99.90;;;;;;6191062;23;20408;-86
2023/01/12 07:20:27;;;;;;;9.45;2.22;;;9.70;99.90;;;;;;6200710;23;20026;-83
2023/01/12 07:22:54;;;;;;;16.20;2.60;;;9.80;99.90;;;;;;6202600;23;20020;-83
2023/01/12 07:25:20;;;;;;;16.98;3.15;;;9.80;99.90;;;;;;6202329;23;20070;-83
2023/01/12 07:27:50;;;;;;;12.30;2.63;;;9.30;99.90;;;;;;6227003;23;20024;-82
2023/01/12 07:30:17;;;;;;;18.33;3.20;;;9.30;99.90;;;;;;6201662;23;20162;-86
2023/01/12 07:32:43;;;;;;;20.45;3.33;;;9.30;99.90;;;;;;6189210;23;20027;-90
2023/01/12 07:35:09;;;;;;;22.88;3.40;;;9.70;99.90;;;;;;6187798;23;20384;-88
2023/01/12 07:37:34;;;;;;;19.60;3.40;;;9.50;99.90;;;;;;6184171;23;20017;-85
2023/01/12 07:40:00;;;;;;;22.70;3.53;;;9.70;99.90;;;;;;6215614;23;20038;-84
2023/01/12 07:42:25;;;;;;;27.90;4.00;;;9.50;99.90;;;;;;6213594;23;20070;-85
2023/01/12 07:44:51;;;;;;;25.92;4.22;;;10.10;99.90;;;;;;6187701;23;20097;-84
2023/01/12 07:47:17;;;;;;;23.50;4.05;;;9.80;99.90;;;;;;6186845;23;20145;-85
2023/01/12 07:49:58;;;;;;;32.83;4.38;;;10.20;99.90;;;;;;6213195;23;20043;-82
2023/01/12 07:52:25;;;;;;;30.38;4.15;;;10.30;99.90;;;;;;6214388;23;20012;-86
2023/01/12 07:54:51;;;;;;;29.80;4.38;;;10.20;99.90;;;;;;6213234;23;20016;-87
2023/01/12 07:57:17;;;;;;;36.35;4.78;;;10.30;99.90;;;;;;6189743;23;20016;-85
2023/01/12 07:59:43;;;;;;;27.92;4.45;;;10.10;99.90;;;;;;6187552;23;20091;-86
2023/01/12 08:02:20;;;;;;;34.63;4.20;;;10.40;99.90;;;;;;6213252;23;20059;-83
2023/01/12 08:04:46;;;;;;;26.63;3.88;;;9.80;99.90;;;;;;6215662;23;20020;-86
2023/01/12 08:07:14;;;;;;;25.00;3.72;;;9.90;99.90;;;;;;6214881;23;20019;-88
2023/01/12 08:09:40;;;;;;;21.65;4.00;;;10.10;99.90;;;;;;6213769;23;20057;-88
2023/01/12 08:12:06;;;;;;;30.30;4.65;;;10.50;99.90;;;;;;6215279;23;20023;-86
2023/01/12 08:14:38;;;;;;;36.47;4.90;;;10.60;99.90;;;;;;6189078;23;20008;-85
2023/01/12 08:17:13;;;;;;;30.50;4.38;;;10.70;99.90;;;;;;6215225;23;20436;-85
2023/01/12 08:19:44;;;;;;;26.33;3.95;;;10.60;99.90;;;;;;6216450;23;20023;-85
2023/01/12 08:22:16;;;;;;;28.20;4.43;;;10.70;99.90;;;;;;6218323;23;20016;-89
2023/01/12 08:24:48;;;;;;;31.83;3.95;;;10.70;99.90;;;;;;6192069;23;20301;-83
2023/01/12 08:27:15;;;;;;;37.60;4.35;;;10.30;99.90;;;;;;6216508;23;20024;-85
2023/01/12 08:29:48;;;;;;;28.70;4.00;;;10.30;99.90;;;;;;6220373;23;20008;-85
2023/01/12 08:32:17;;;;;;;28.80;3.75;;;10.80;99.90;;;;;;6193125;23;20015;-87
2023/01/12 08:34:59;;;;;;;27.85;3.95;;;10.50;99.90;;;;;;6190752;23;20008;-90
2023/01/12 08:37:41;;;;;;;23.45;3.40;;;10.80;99.90;;;;;;6193288;23;20095;-87
2023/01/12 08:40:10;;;;;;;29.02;4.28;;;10.70;99.90;;;;;;6208716;23;20547;-87
2023/01/12 08:42:54;;;;;;;27.77;4.07;;;10.60;99.90;;;;;;6162055;23;20016;-88
2023/01/12 08:45:22;;;;;;;27.13;3.97;;;10.30;99.90;;;;;;6160459;23;20055;-91
2023/01/12 08:47:51;;;;;;;29.92;3.80;;;10.80;99.90;;;;;;6188283;23;20460;-88
2023/01/12 08:50:16;;;;;;;24.55;3.60;;;10.50;99.90;;;;;;6161821;23;20044;-88
2023/01/12 08:52:42;;;;;;;22.75;3.55;;;10.50;99.90;;;;;;6213132;23;20090;-91
2023/01/12 08:55:10;;;;;;;24.73;3.88;;;10.50;99.90;;;;;;6213542;23;20017;-90
2023/01/12 08:57:37;;;;;;;27.45;3.00;;;10.70;99.90;;;;;;6161391;23;20016;-89
2023/01/12 09:00:03;;;;;;;26.58;3.90;;;10.70;99.90;;;;;;6136517;23;20016;-89
2023/01/12 09:02:28;;;;;;;18.23;2.90;;;10.60;99.90;;;;;;6208786;23;20020;-86
2023/01/12 09:04:54;;;;;;;22.88;3.13;;;11.00;99.90;;;;;;6210219;23;20024;-82
2023/01/12 09:07:20;;;;;;;27.23;3.60;;;10.50;99.90;;;;;;6159695;23;20388;-88
2023/01/12 09:09:45;;;;;;;28.98;3.90;;;10.70;99.90;;;;;;6208953;23;20016;-85
2023/01/12 09:12:11;;;;;;;25.85;3.50;;;10.80;99.90;;;;;;6208186;23;20016;-85
2023/01/12 09:14:37;;;;;;;25.83;3.22;;;10.50;99.90;;;;;;6159047;23;20008;-85
2023/01/12 09:17:04;;;;;;;23.67;3.35;;;10.30;99.90;;;;;;6219723;23;20083;-82
2023/01/12 09:19:30;;;;;;;22.27;3.35;;;11.10;99.90;;;;;;6192968;23;20081;-86
2023/01/12 09:22:32;;;;;;;25.83;4.00;;;10.60;99.90;;;;;;6215105;23;20028;-87
2023/01/12 09:24:58;;;;;;;20.15;3.33;;;11.00;99.90;;;;;;6189191;23;20085;-88
2023/01/12 09:27:24;;;;;;;24.67;3.17;;;10.50;99.90;;;;;;6241941;23;20020;-81
2023/01/12 09:29:50;;;;;;;26.10;3.65;;;11.00;99.90;;;;;;6241829;23;20012;-86
2023/01/12 09:32:16;;;;;;;23.80;3.17;;;10.80;99.90;;;;;;6213542;23;20016;-84
2023/01/12 09:34:42;;;;;;;28.33;3.92;;;10.50;99.90;;;;;;6214963;23;20095;-81
2023/01/12 09:37:07;;;;;;;29.50;4.18;;;11.00;99.90;;;;;;6215139;23;20396;-86
2023/01/12 09:39:33;;;;;;;25.10;3.50;;;10.80;99.90;;;;;;6213235;23;20016;-81
2023/01/12 09:47:55;;;;;;;24.83;3.75;;;11.00;99.90;;;;;;6213412;23;20085;-81
2023/01/12 09:50:31;;;;;;;21.38;3.08;;;11.10;99.90;;;;;;6188256;23;20048;-82
2023/01/12 09:52:56;;;;;;;19.75;3.03;;;11.20;99.90;;;;;;6190291;23;20040;-80
2023/01/12 09:55:26;;;;;;;21.35;2.67;;;11.00;99.90;;;;;;6243673;23;20083;-82
2023/01/12 09:58:03;;;;;;;25.77;3.10;;;10.90;99.90;;;;;;6215517;23;20019;-87
2023/01/12 10:00:29;;;;;;;21.20;3.40;;;11.10;99.90;;;;;;6213283;23;20062;-83
2023/01/12 10:03:23;;;;;;;20.10;3.05;;;11.30;99.90;;;;;;6189533;23;20028;-84
2023/01/12 10:05:56;;;;;;;28.80;4.60;;;11.30;99.90;;;;;;6189292;23;20016;-84
2023/01/12 10:08:38;;;;;;;22.90;3.58;;;10.70;99.90;;;;;;6216393;23;20269;-87
2023/01/12 10:11:23;;;;;;;20.38;3.95;;;10.70;99.90;;;;;;6216249;23;20012;-82
2023/01/12 10:13:49;;;;;;;27.23;3.15;;;11.20;99.90;;;;;;6217760;23;20008;-85
2023/01/12 10:16:27;;;;;;;26.08;3.72;;;10.90;99.90;;;;;;6189074;23;20078;-83
2023/01/12 10:18:59;;;;;;;28.63;3.67;;;10.80;99.90;;;;;;6213044;23;20141;-82
2023/01/12 10:21:27;;;;;;;22.42;3.22;;;10.90;99.90;;;;;;6213781;23;20039;-84
2023/01/12 10:23:53;;;;;;;21.73;3.15;;;10.80;99.90;;;;;;6190919;23;20016;-84
2023/01/12 10:26:24;;;;;;;23.85;3.20;;;11.30;99.90;;;;;;6242725;22;20042;-84
2023/01/12 10:28:53;;;;;;;23.92;3.00;;;11.30;99.90;;;;;;6190045;23;20073;-86
2023/01/12 10:31:23;;;;;;;22.48;3.67;;;11.10;99.90;;;;;;6215222;23;20043;-87
2023/01/12 10:34:07;;;;;;;16.95;3.13;;;11.30;99.90;;;;;;6214859;23;20008;-86
2023/01/12 10:36:41;;;;;;;27.83;3.70;;;10.80;99.90;;;;;;6216405;23;20083;-82
2023/01/12 10:39:28;;;;;;;22.70;3.28;;;11.40;99.90;;;;;;6216702;23;20019;-84
2023/01/12 10:43:17;;;;;;;21.25;2.78;;;11.40;99.90;;;;;;6189359;23;20016;-85
2023/01/12 10:45:15;;;;;;;22.58;3.00;;;11.10;99.90;;;;;;6240829;23;20091;-84
2023/01/12 10:47:42;;;;;;;19.83;3.00;;;11.30;99.90;;;;;;6187309;23;20479;-86
2023/01/12 10:50:28;;;;;;;28.70;3.70;;;11.00;99.90;;;;;;6189037;23;20019;-86
2023/01/12 10:53:11;;;;;;;25.27;3.50;;;11.30;99.90;;;;;;6190033;23;20012;-87
2023/01/12 10:55:40;;;;;;;24.45;3.67;;;11.00;99.90;;;;;;6215268;23;20016;-89
2023/01/12 10:58:21;;;;;;;18.42;2.70;;;10.80;99.90;;;;;;6215527;23;20023;-88
2023/01/12 11:00:50;;;;;;;22.23;2.90;;;10.90;99.90;;;;;;6214076;23;20142;-90
2023/01/12 11:03:31;;;;;;;18.25;2.88;;;11.30;99.90;;;;;;6188937;23;20300;-88
2023/01/12 11:06:23;;;;;;;19.42;3.10;;;11.30;99.90;;;;;;6190402;23;20012;-88
2023/01/12 11:08:50;;;;;;;21.67;2.97;;;11.20;99.90;;;;;;6188249;23;20756;-86
2023/01/12 11:11:29;;;;;;;24.05;3.25;;;11.30;99.90;;;;;;6190255;23;20059;-86
2023/01/12 11:13:59;;;;;;;20.58;3.13;;;11.00;99.90;;;;;;6194025;23;20490;-86
2023/01/12 11:16:44;;;;;;;28.13;3.30;;;11.30;99.90;;;;;;6188322;23;20023;-85
2023/01/12 11:19:20;;;;;;;27.38;2.97;;;10.80;99.90;;;;;;6214980;23;20018;-83
2023/01/12 11:22:00;;;;;;;22.60;3.70;;;10.90;99.90;;;;;;6216669;23;20020;-87
2023/01/12 11:24:36;;;;;;;21.42;3.33;;;10.90;99.90;;;;;;6214395;23;20024;-86
2023/01/12 11:27:06;;;;;;;24.25;3.50;;;11.10;99.90;;;;;;6187918;23;20024;-86
2023/01/12 11:29:59;;;;;;;21.67;3.05;;;11.30;99.90;;;;;;6212598;23;20020;-88
2023/01/12 11:32:40;;;;;;;23.15;3.28;;;11.10;99.90;;;;;;6213044;23;20024;-88
2023/01/12 11:35:24;;;;;;;25.77;3.50;;;11.60;99.90;;;;;;6212679;23;20012;-84
2023/01/12 11:37:53;;;;;;;26.13;3.35;;;11.20;99.90;;;;;;6211723;23;20017;-82
2023/01/12 11:40:33;;;;;;;19.00;2.97;;;11.50;99.90;;;;;;6211198;23;20028;-84
2023/01/12 11:46:35;;;;;;;25.98;3.40;;;11.50;99.90;;;;;;6209354;23;20490;-82
2023/01/12 11:49:10;;;;;;;21.95;3.13;;;11.30;99.90;;;;;;6184254;23;20111;-83
2023/01/12 11:51:37;;;;;;;30.25;3.58;;;11.80;99.90;;;;;;6183296;23;20107;-86
2023/01/12 11:54:05;;;;;;;21.85;2.78;;;11.80;99.90;;;;;;6182791;23;20016;-86
2023/01/12 11:56:55;;;;;;;20.85;3.10;;;11.60;99.90;;;;;;6203914;23;20013;-84
2023/01/12 11:59:58;;;;;;;26.98;3.50;;;11.90;99.90;;;;;;6210226;23;20444;-85
2023/01/12 12:02:49;;;;;;;24.05;3.67;;;12.00;99.90;;;;;;6212323;23;20035;-85
2023/01/12 12:05:15;;;;;;;23.10;3.20;;;11.90;99.90;;;;;;6212174;23;20020;-85
2023/01/12 12:07:44;;;;;;;18.48;2.90;;;12.00;99.90;;;;;;6213055;23;20024;-85
2023/01/12 12:10:28;;;;;;;18.15;2.83;;;11.70;99.90;;;;;;6213317;23;20009;-85
2023/01/12 12:13:10;;;;;;;15.43;3.03;;;12.00;99.90;;;;;;6213023;23;20074;-85
2023/01/12 12:15:46;;;;;;;18.38;2.80;;;11.70;99.90;;;;;;6187510;23;20016;-85
2023/01/12 12:18:24;;;;;;;18.58;3.05;;;11.40;99.90;;;;;;6188264;23;20468;-86
2023/01/12 12:20:58;;;;;;;18.92;2.58;;;11.80;99.90;;;;;;6212810;23;20013;-84
2023/01/12 12:23:55;;;;;;;16.52;2.40;;;11.60;99.90;;;;;;6213625;23;20035;-86
2023/01/12 12:27:08;;;;;;;19.70;2.95;;;11.50;99.90;;;;;;6186718;23;20020;-86
2023/01/12 12:30:03;;;;;;;21.85;3.03;;;11.40;99.90;;;;;;6043789;23;20094;-85
2023/01/12 12:32:40;;;;;;;16.70;3.22;;;11.90;99.90;;;;;;6067572;23;20020;-85
2023/01/12 12:35:20;;;;;;;19.80;3.00;;;11.70;99.90;;;;;;6044851;23;20054;-85
2023/01/12 12:38:06;;;;;;;15.70;2.40;;;11.80;99.90;;;;;;6045879;23;20018;-87
2023/01/12 12:46:42;;;;;;;18.48;2.45;;;11.30;99.90;;;;;;6092261;23;19923;-84
2023/01/12 12:49:17;;;;;;;20.80;2.72;;;11.10;99.90;;;;;;6068776;23;20470;-84
2023/01/12 12:51:44;;;;;;;24.02;3.13;;;11.50;99.90;;;;;;6068125;23;20117;-86
2023/01/12 12:54:16;;;;;;;24.13;3.40;;;11.30;99.90;;;;;;6068053;23;20125;-86
2023/01/12 12:56:42;;;;;;;21.63;3.35;;;11.50;99.90;;;;;;6044809;23;20010;-86
2023/01/12 12:59:30;;;;;;;24.27;3.75;;;11.50;99.90;;;;;;6045316;23;20018;-86
2023/01/12 13:01:58;;;;;;;21.98;3.10;;;11.10;99.90;;;;;;6067414;23;20080;-84
2023/01/12 13:04:42;;;;;;;25.75;3.58;;;11.50;99.90;;;;;;6082291;23;20463;-84
2023/01/12 13:07:20;;;;;;;30.45;3.63;;;11.20;99.90;;;;;;6188122;23;20034;-85
2023/01/12 13:09:47;;;;;;;28.17;4.00;;;11.10;99.90;;;;;;6213403;23;20019;-85
2023/01/12 13:12:31;;;;;;;26.52;4.00;;;11.40;99.90;;;;;;6212715;23;20013;-86
2023/01/12 13:15:18;;;;;;;27.88;4.40;;;11.10;99.90;;;;;;6187619;23;20019;-85
2023/01/12 13:17:46;;;;;;;29.17;4.00;;;11.40;99.90;;;;;;6188155;23;20396;-85
2023/01/12 13:20:11;;;;;;;27.10;3.45;;;11.10;99.90;;;;;;6212517;23;20086;-85
2023/01/12 13:23:03;;;;;;;23.52;3.67;;;11.50;99.90;;;;;;6188090;23;20013;-85
2023/01/12 13:25:29;;;;;;;23.23;3.80;;;11.50;99.90;;;;;;6211699;23;20403;-85
2023/01/12 13:27:56;;;;;;;24.25;3.40;;;11.50;99.90;;;;;;6193357;23;20052;-87
2023/01/12 13:30:31;;;;;;;23.95;3.55;;;11.20;99.90;;;;;;6186562;23;20538;-85
2023/01/12 13:33:16;;;;;;;27.83;3.47;;;11.50;99.90;;;;;;6209912;23;20018;-84
2023/01/12 13:35:45;;;;;;;27.70;4.00;;;11.60;99.90;;;;;;6186785;23;20316;-86
2023/01/12 13:38:51;;;;;;;27.20;3.80;;;11.50;99.90;;;;;;6185012;23;20059;-83
2023/01/12 13:44:20;;;;;;;28.77;4.35;;;11.20;99.90;;;;;;6208662;23;20837;-83
2023/01/12 13:46:52;;;;;;;25.35;3.85;;;11.20;99.90;;;;;;6210154;23;20082;-85
2023/01/12 13:49:28;;;;;;;25.00;3.60;;;11.20;99.90;;;;;;6216050;23;20020;-85
2023/01/12 13:51:59;;;;;;;26.88;3.78;;;11.60;99.90;;;;;;6186218;23;20020;-86
2023/01/12 13:54:25;;;;;;;32.88;4.07;;;11.60;99.90;;;;;;6211102;23;20021;-85
2023/01/12 13:57:04;;;;;;;28.05;3.58;;;11.50;99.90;;;;;;6186013;23;20013;-85
2023/01/12 13:59:30;;;;;;;29.38;4.45;;;11.10;99.90;;;;;;6212142;23;20030;-83
2023/01/12 14:01:56;;;;;;;31.75;3.80;;;11.20;99.90;;;;;;6189226;23;20017;-88
2023/01/12 14:04:58;;;;;;;25.45;3.78;;;11.20;99.90;;;;;;6210417;23;20467;-84